createdAt,value
2017-10-10T00:02:09.648Z,8.60
2017-10-10T00:04:35.952Z,8.70
2017-10-10T00:07:02.276Z,8.60
2017-10-10T00:09:28.598Z,8.50
2017-10-10T00:11:55.630Z,8.40
2017-10-10T00:14:22.673Z,8.50
2017-10-10T00:16:49.707Z,8.40
2017-10-10T00:19:15.974Z,8.40
2017-10-10T00:21:43.322Z,8.40
2017-10-10T00:24:09.623Z,8.30
2017-10-10T00:26:35.943Z,8.20
2017-10-10T00:29:02.238Z,8.10
2017-10-10T00:31:28.538Z,8.10
2017-10-10T00:33:55.048Z,8.10
2017-10-10T00:36:21.435Z,8.20
2017-10-10T00:38:47.738Z,8.20
2017-10-10T00:41:14.077Z,8.10
2017-10-10T00:43:40.379Z,8.10
2017-10-10T00:46:07.451Z,8.00
2017-10-10T00:48:33.767Z,8.00
2017-10-10T00:51:00.830Z,7.90
2017-10-10T00:53:27.194Z,7.80
2017-10-10T00:55:53.747Z,7.80
2017-10-10T00:58:20.041Z,7.80
2017-10-10T01:00:46.364Z,7.80
2017-10-10T01:03:12.649Z,7.90
2017-10-10T01:05:38.950Z,7.90
2017-10-10T01:08:05.298Z,7.90
2017-10-10T01:10:31.618Z,8.00
2017-10-10T01:12:57.912Z,8.00
2017-10-10T01:15:24.249Z,8.00
2017-10-10T01:17:50.579Z,8.00
2017-10-10T01:20:16.905Z,7.90
2017-10-10T01:22:44.334Z,7.80
2017-10-10T01:25:11.386Z,7.90
2017-10-10T01:27:37.743Z,7.90
2017-10-10T01:30:04.789Z,8.00
2017-10-10T01:32:31.111Z,7.90
2017-10-10T01:34:58.014Z,8.00
2017-10-10T01:37:24.339Z,8.20
2017-10-10T01:39:50.639Z,8.30
2017-10-10T01:42:16.968Z,8.40
2017-10-10T01:44:43.282Z,8.40
2017-10-10T01:47:09.620Z,8.40
2017-10-10T01:49:36.558Z,8.50
2017-10-10T01:52:02.894Z,8.40
2017-10-10T01:54:29.202Z,8.40
2017-10-10T01:56:55.559Z,8.40
2017-10-10T01:59:21.834Z,8.40
2017-10-10T02:01:49.909Z,8.40
2017-10-10T02:04:16.958Z,8.40
2017-10-10T02:06:45.791Z,8.40
2017-10-10T02:09:12.075Z,8.40
2017-10-10T02:11:39.121Z,8.30
2017-10-10T02:14:06.134Z,8.40
2017-10-10T02:16:32.434Z,8.30
2017-10-10T02:18:58.778Z,8.30
2017-10-10T02:21:25.050Z,8.30
2017-10-10T02:23:52.063Z,8.20
2017-10-10T02:26:18.369Z,8.20
2017-10-10T02:28:44.662Z,8.30
2017-10-10T02:31:11.687Z,8.30
2017-10-10T02:33:38.019Z,8.30
2017-10-10T02:36:04.322Z,8.30
2017-10-10T02:38:30.609Z,8.30
2017-10-10T02:40:56.951Z,8.40
2017-10-10T02:43:23.268Z,8.40
2017-10-10T02:45:49.570Z,8.30
2017-10-10T02:48:15.859Z,8.40
2017-10-10T02:50:42.176Z,8.40
2017-10-10T02:53:08.458Z,8.40
2017-10-10T02:55:34.752Z,8.50
2017-10-10T02:58:01.038Z,8.50
2017-10-10T03:00:28.068Z,8.60
2017-10-10T03:02:54.374Z,8.60
2017-10-10T03:05:20.825Z,8.60
2017-10-10T03:07:47.115Z,8.60
2017-10-10T03:10:13.406Z,8.60
2017-10-10T03:12:40.457Z,8.60
2017-10-10T03:15:06.766Z,8.60
2017-10-10T03:17:33.799Z,8.60
2017-10-10T03:20:00.073Z,8.60
2017-10-10T03:22:26.367Z,8.70
2017-10-10T03:24:52.634Z,8.60
2017-10-10T03:27:18.944Z,8.70
2017-10-10T03:29:46.961Z,8.70
2017-10-10T03:32:13.262Z,8.70
2017-10-10T03:34:39.580Z,8.70
2017-10-10T03:37:05.895Z,8.60
2017-10-10T03:39:32.927Z,8.60
2017-10-10T03:41:59.199Z,8.60
2017-10-10T03:44:25.498Z,8.60
2017-10-10T03:46:52.521Z,8.60
2017-10-10T03:49:18.866Z,8.60
2017-10-10T03:51:45.228Z,8.60
2017-10-10T03:54:11.496Z,8.60
2017-10-10T03:56:37.792Z,8.80
2017-10-10T03:59:04.102Z,8.80
2017-10-10T04:01:31.130Z,8.80
2017-10-10T04:03:57.423Z,8.70
2017-10-10T04:06:23.723Z,8.90
2017-10-10T04:08:50.031Z,8.90
2017-10-10T04:11:17.105Z,9.00
2017-10-10T04:13:43.408Z,9.00
2017-10-10T04:16:09.682Z,9.10
2017-10-10T04:18:35.999Z,9.10
2017-10-10T04:21:02.312Z,9.10
2017-10-10T04:23:28.599Z,9.00
2017-10-10T04:25:54.910Z,9.00
2017-10-10T04:28:21.194Z,9.00
2017-10-10T04:30:47.490Z,9.00
2017-10-10T04:33:13.802Z,9.00
2017-10-10T04:35:40.111Z,9.00
2017-10-10T04:38:06.417Z,9.00
2017-10-10T04:40:32.738Z,9.00
2017-10-10T04:42:59.759Z,8.80
2017-10-10T04:45:26.034Z,8.80
2017-10-10T04:47:52.388Z,8.80
2017-10-10T04:50:18.674Z,8.90
2017-10-10T04:52:45.682Z,9.00
2017-10-10T04:55:12.042Z,9.00
2017-10-10T04:57:39.098Z,9.00
2017-10-10T05:00:06.127Z,8.90
2017-10-10T05:02:33.168Z,8.90
2017-10-10T05:04:59.543Z,8.80
2017-10-10T05:07:25.883Z,8.80
2017-10-10T05:09:52.175Z,8.70
2017-10-10T05:12:19.208Z,8.70
2017-10-10T05:14:46.241Z,8.50
2017-10-10T05:17:12.561Z,8.50
2017-10-10T05:19:38.838Z,8.60
2017-10-10T05:22:05.151Z,8.60
2017-10-10T05:24:33.487Z,8.50
2017-10-10T05:26:59.771Z,8.50
2017-10-10T05:29:26.084Z,8.60
2017-10-10T05:31:53.126Z,8.70
2017-10-10T05:34:19.454Z,8.70
2017-10-10T05:36:45.766Z,8.70
2017-10-10T05:39:12.070Z,8.80
2017-10-10T05:41:38.378Z,8.90
2017-10-10T05:44:04.750Z,8.90
2017-10-10T05:46:31.079Z,9.00
2017-10-10T05:48:57.400Z,9.00
2017-10-10T05:51:23.695Z,9.10
2017-10-10T05:53:49.990Z,9.20
2017-10-10T05:56:16.286Z,9.20
2017-10-10T05:58:42.591Z,9.20
2017-10-10T06:01:08.870Z,9.20
2017-10-10T06:03:35.168Z,9.10
2017-10-10T06:06:01.448Z,9.10
2017-10-10T06:08:28.483Z,9.00
2017-10-10T06:10:54.786Z,9.00
2017-10-10T06:13:21.135Z,9.10
2017-10-10T06:15:47.410Z,9.10
2017-10-10T06:18:14.542Z,9.20
2017-10-10T06:20:41.554Z,9.30
2017-10-10T06:23:07.867Z,9.30
2017-10-10T06:25:34.170Z,9.50
2017-10-10T06:28:00.478Z,9.60
2017-10-10T06:30:26.754Z,9.70
2017-10-10T06:32:53.030Z,9.70
2017-10-10T06:35:21.318Z,9.90
2017-10-10T06:37:47.622Z,9.80
2017-10-10T06:40:14.651Z,10.00
2017-10-10T06:42:40.975Z,10.00
2017-10-10T06:45:07.253Z,10.10
2017-10-10T06:47:33.528Z,10.30
2017-10-10T06:49:59.840Z,10.30
2017-10-10T06:52:26.119Z,10.30
2017-10-10T06:54:53.170Z,10.50
2017-10-10T06:57:20.226Z,10.40
2017-10-10T06:59:46.517Z,10.40
2017-10-10T07:02:12.791Z,10.50
2017-10-10T07:04:39.083Z,10.50
2017-10-10T07:07:05.383Z,10.40
2017-10-10T07:09:31.687Z,10.30
2017-10-10T07:11:57.994Z,10.40
2017-10-10T07:14:25.055Z,10.50
2017-10-10T07:16:51.367Z,10.50
2017-10-10T07:19:19.448Z,10.70
2017-10-10T07:21:46.532Z,10.70
2017-10-10T07:24:12.822Z,10.70
2017-10-10T07:26:39.865Z,11.10
2017-10-10T07:29:06.195Z,11.10
2017-10-10T07:31:33.225Z,11.10
2017-10-10T07:33:59.535Z,11.10
2017-10-10T07:36:25.867Z,11.20
2017-10-10T07:38:52.168Z,11.30
2017-10-10T07:41:18.442Z,11.50
2017-10-10T07:43:44.761Z,11.50
2017-10-10T07:46:11.062Z,11.40
2017-10-10T07:48:37.357Z,11.40
2017-10-10T07:51:03.666Z,11.50
2017-10-10T07:53:30.709Z,11.10
2017-10-10T07:55:56.975Z,11.10
2017-10-10T07:58:23.289Z,11.20
2017-10-10T08:00:49.559Z,11.30
2017-10-10T08:03:15.866Z,11.40
2017-10-10T08:05:42.195Z,11.50
2017-10-10T08:08:09.505Z,11.40
2017-10-10T08:10:35.791Z,11.60
2017-10-10T08:13:02.083Z,11.70
2017-10-10T08:15:29.117Z,11.70
2017-10-10T08:17:55.456Z,11.70
2017-10-10T08:20:22.479Z,11.60
2017-10-10T08:22:48.769Z,11.60
2017-10-10T08:25:15.038Z,11.70
2017-10-10T08:27:41.327Z,11.60
2017-10-10T08:30:07.635Z,11.60
2017-10-10T08:32:33.923Z,11.50
2017-10-10T08:35:00.240Z,11.70
2017-10-10T08:37:26.555Z,12.00
2017-10-10T08:39:52.878Z,12.10
2017-10-10T08:42:19.198Z,12.20
2017-10-10T08:44:46.271Z,12.10
2017-10-10T08:47:12.579Z,12.10
2017-10-10T08:49:38.849Z,12.20
2017-10-10T08:52:05.182Z,12.30
2017-10-10T08:54:31.462Z,12.40
2017-10-10T08:56:57.735Z,12.60
2017-10-10T08:59:24.058Z,12.60
2017-10-10T09:01:50.355Z,12.60
2017-10-10T09:04:16.655Z,12.50
2017-10-10T09:06:43.718Z,13.20
2017-10-10T09:09:09.982Z,13.10
2017-10-10T09:11:36.293Z,13.30
2017-10-10T09:14:02.583Z,13.30
2017-10-10T09:16:29.609Z,13.40
2017-10-10T09:18:55.875Z,13.40
2017-10-10T09:21:22.163Z,13.50
2017-10-10T09:23:48.423Z,13.70
2017-10-10T09:26:15.467Z,14.20
2017-10-10T09:28:43.498Z,14.30
2017-10-10T09:31:09.802Z,14.20
2017-10-10T09:33:36.847Z,13.90
2017-10-10T09:36:03.123Z,13.90
2017-10-10T09:38:29.442Z,14.10
2017-10-10T09:40:55.726Z,14.10
2017-10-10T09:43:21.999Z,14.10
2017-10-10T09:45:48.314Z,14.10
2017-10-10T09:48:14.625Z,14.30
2017-10-10T09:50:40.903Z,14.40
2017-10-10T09:53:07.217Z,14.50
2017-10-10T09:55:33.487Z,14.70
2017-10-10T09:57:59.799Z,14.70
2017-10-10T10:00:26.870Z,14.30
2017-10-10T10:02:53.134Z,14.30
2017-10-10T10:05:19.399Z,14.20
2017-10-10T10:07:45.694Z,14.10
2017-10-10T10:10:12.010Z,14.20
2017-10-10T10:12:38.290Z,14.00
2017-10-10T10:15:04.583Z,14.00
2017-10-10T10:17:30.867Z,13.90
2017-10-10T10:19:57.171Z,13.80
2017-10-10T10:22:23.445Z,14.00
2017-10-10T10:24:49.756Z,14.10
2017-10-10T10:27:16.027Z,14.20
2017-10-10T10:29:42.330Z,14.20
2017-10-10T10:32:08.603Z,14.20
2017-10-10T10:34:34.878Z,14.30
2017-10-10T10:37:01.162Z,14.40
2017-10-10T10:39:27.435Z,14.60
2017-10-10T10:41:53.736Z,14.70
2017-10-10T10:44:20.039Z,14.70
2017-10-10T10:46:46.352Z,14.70
2017-10-10T10:49:12.654Z,14.90
2017-10-10T10:51:38.926Z,15.00
2017-10-10T10:54:05.199Z,15.00
2017-10-10T10:56:32.270Z,15.40
2017-10-10T10:58:58.543Z,15.40
2017-10-10T11:01:24.834Z,15.60
2017-10-10T11:03:51.118Z,15.40
2017-10-10T11:06:17.407Z,15.30
2017-10-10T11:08:43.700Z,15.10
2017-10-10T11:11:09.998Z,15.00
2017-10-10T11:13:36.287Z,15.30
2017-10-10T11:16:02.562Z,15.60
2017-10-10T11:18:28.893Z,15.50
2017-10-10T11:20:55.179Z,15.30
2017-10-10T11:23:21.456Z,15.20
2017-10-10T11:25:48.492Z,15.10
2017-10-10T11:28:14.772Z,15.10
2017-10-10T11:30:41.043Z,15.20
2017-10-10T11:33:07.359Z,15.20
2017-10-10T11:35:33.646Z,15.20
2017-10-10T11:37:59.962Z,15.20
2017-10-10T11:40:27.006Z,15.10
2017-10-10T11:42:55.068Z,15.30
2017-10-10T11:45:22.087Z,15.30
2017-10-10T11:47:48.403Z,15.30
2017-10-10T11:50:14.679Z,15.50
2017-10-10T11:52:41.703Z,15.60
2017-10-10T11:55:08.011Z,15.60
2017-10-10T11:57:34.295Z,15.50
2017-10-10T12:00:00.582Z,15.30
2017-10-10T12:02:26.870Z,15.30
2017-10-10T12:04:53.130Z,15.20
2017-10-10T12:07:19.419Z,15.20
2017-10-10T12:09:45.713Z,14.90
2017-10-10T12:12:12.027Z,14.70
2017-10-10T12:14:38.319Z,14.40
2017-10-10T12:17:04.623Z,14.30
2017-10-10T12:19:31.667Z,14.70
2017-10-10T12:21:58.710Z,14.80
2017-10-10T12:24:25.715Z,14.80
2017-10-10T12:26:52.012Z,14.80
2017-10-10T12:29:18.302Z,14.80
2017-10-10T12:31:45.380Z,14.90
2017-10-10T12:34:11.684Z,14.80
2017-10-10T12:36:38.707Z,14.90
2017-10-10T12:39:05.020Z,14.90
2017-10-10T12:41:31.290Z,14.90
2017-10-10T12:43:58.307Z,15.10
2017-10-10T12:46:24.617Z,15.10
2017-10-10T12:48:51.907Z,15.10
2017-10-10T12:51:18.200Z,15.00
2017-10-10T12:53:44.504Z,15.00
2017-10-10T12:56:10.810Z,14.80
2017-10-10T12:58:37.859Z,14.60
2017-10-10T13:01:04.930Z,14.60
2017-10-10T13:03:31.216Z,14.50
2017-10-10T13:05:57.522Z,14.80
2017-10-10T13:08:23.832Z,14.90
2017-10-10T13:10:50.122Z,15.00
2017-10-10T13:13:17.145Z,14.90
2017-10-10T13:15:44.430Z,14.90
2017-10-10T13:18:10.707Z,14.90
2017-10-10T13:20:36.990Z,15.00
2017-10-10T13:23:03.295Z,14.90
2017-10-10T13:25:29.591Z,14.90
2017-10-10T13:27:56.394Z,14.80
2017-10-10T13:30:22.702Z,14.70
2017-10-10T13:32:49.711Z,14.50
2017-10-10T13:35:16.039Z,14.70
2017-10-10T13:37:42.490Z,14.70
2017-10-10T13:40:08.781Z,14.60
2017-10-10T13:42:35.080Z,14.40
2017-10-10T13:45:02.143Z,14.40
2017-10-10T13:47:28.421Z,14.40
2017-10-10T13:49:54.754Z,14.40
2017-10-10T13:52:21.062Z,14.40
2017-10-10T13:54:47.342Z,14.40
2017-10-10T13:57:14.386Z,14.50
2017-10-10T13:59:41.452Z,14.50
2017-10-10T14:02:07.740Z,14.50
2017-10-10T14:04:34.035Z,14.50
2017-10-10T14:07:01.191Z,14.30
2017-10-10T14:09:27.458Z,14.40
2017-10-10T14:11:53.754Z,14.30
2017-10-10T14:14:20.035Z,14.30
2017-10-10T14:16:47.071Z,14.20
2017-10-10T14:19:14.112Z,14.10
2017-10-10T14:21:40.445Z,14.00
2017-10-10T14:24:07.462Z,14.10
2017-10-10T14:26:33.743Z,14.00
2017-10-10T14:29:00.064Z,14.00
2017-10-10T14:31:27.109Z,14.10
2017-10-10T14:33:54.135Z,14.00
2017-10-10T14:36:21.190Z,14.00
2017-10-10T14:38:48.203Z,14.00
2017-10-10T14:41:14.486Z,13.90
2017-10-10T14:43:40.783Z,14.00
2017-10-10T14:46:07.075Z,14.00
2017-10-10T14:48:33.363Z,14.00
2017-10-10T14:51:00.394Z,13.90
2017-10-10T14:53:26.702Z,13.90
2017-10-10T14:55:53.987Z,13.90
2017-10-10T14:58:21.047Z,13.90
2017-10-10T15:00:47.342Z,13.90
2017-10-10T15:03:13.650Z,13.80
2017-10-10T15:05:39.956Z,13.80
2017-10-10T15:08:06.251Z,13.70
2017-10-10T15:10:33.267Z,13.50
2017-10-10T15:12:59.570Z,13.50
2017-10-10T15:15:26.862Z,13.50
2017-10-10T15:17:53.160Z,13.50
2017-10-10T15:20:19.441Z,13.40
2017-10-10T15:22:47.491Z,13.30
2017-10-10T15:25:13.765Z,13.30
2017-10-10T15:27:40.113Z,13.40
2017-10-10T15:30:06.383Z,13.30
2017-10-10T15:32:32.686Z,13.10
2017-10-10T15:34:58.947Z,13.10
2017-10-10T15:37:25.245Z,13.10
2017-10-10T15:39:51.527Z,13.20
2017-10-10T15:42:17.906Z,13.20
2017-10-10T15:44:44.194Z,13.20
2017-10-10T15:47:10.482Z,13.20
2017-10-10T15:49:36.758Z,13.10
2017-10-10T15:52:03.801Z,13.00
2017-10-10T15:54:30.084Z,13.00
2017-10-10T15:56:56.383Z,12.90
2017-10-10T15:59:22.659Z,12.90
2017-10-10T16:01:48.982Z,12.90
2017-10-10T16:04:15.280Z,12.80
2017-10-10T16:06:41.577Z,12.80
2017-10-10T16:09:07.883Z,12.70
2017-10-10T16:11:34.227Z,12.70
2017-10-10T16:14:00.507Z,12.70
2017-10-10T16:16:26.821Z,12.60
2017-10-10T16:18:53.107Z,12.50
2017-10-10T16:21:20.135Z,12.60
2017-10-10T16:23:46.439Z,12.60
2017-10-10T16:26:12.711Z,12.60
2017-10-10T16:28:39.743Z,12.60
2017-10-10T16:31:06.039Z,12.50
2017-10-10T16:33:32.402Z,12.50
2017-10-10T16:35:58.709Z,12.60
2017-10-10T16:38:25.031Z,12.60
2017-10-10T16:40:51.344Z,12.60
2017-10-10T16:43:17.626Z,12.50
2017-10-10T16:45:44.641Z,12.40
2017-10-10T16:48:10.938Z,12.30
2017-10-10T16:50:37.962Z,12.30
2017-10-10T16:53:06.007Z,12.30
2017-10-10T16:55:32.280Z,12.20
2017-10-10T16:57:58.575Z,12.20
2017-10-10T17:00:25.609Z,12.10
2017-10-10T17:02:51.906Z,12.00
2017-10-10T17:05:18.183Z,12.00
2017-10-10T17:07:45.209Z,11.90
2017-10-10T17:10:11.522Z,11.90
2017-10-10T17:12:37.803Z,11.90
2017-10-10T17:15:04.087Z,12.00
2017-10-10T17:17:30.403Z,11.90
2017-10-10T17:19:56.690Z,11.90
2017-10-10T17:22:23.706Z,11.90
2017-10-10T17:24:49.992Z,11.80
2017-10-10T17:27:17.290Z,11.90
2017-10-10T17:29:43.608Z,11.90
2017-10-10T17:32:09.923Z,11.90
2017-10-10T17:34:36.202Z,11.90
2017-10-10T17:37:03.287Z,12.00
2017-10-10T17:39:29.614Z,12.00
2017-10-10T17:41:55.918Z,12.00
2017-10-10T17:44:22.222Z,12.00
2017-10-10T17:46:49.241Z,12.00
2017-10-10T17:49:15.538Z,12.00
2017-10-10T17:51:41.823Z,11.90
2017-10-10T17:54:08.842Z,11.90
2017-10-10T17:56:36.147Z,11.90
2017-10-10T17:59:02.430Z,11.90
2017-10-10T18:01:28.723Z,11.90
2017-10-10T18:03:55.043Z,11.90
2017-10-10T18:06:21.310Z,11.90
2017-10-10T18:08:47.607Z,11.90
2017-10-10T18:11:13.897Z,12.00
2017-10-10T18:13:40.947Z,11.90
2017-10-10T18:16:07.970Z,11.80
2017-10-10T18:18:34.311Z,11.80
2017-10-10T18:21:00.619Z,11.80
2017-10-10T18:23:26.900Z,11.60
2017-10-10T18:25:53.217Z,11.50
2017-10-10T18:28:20.255Z,11.40
2017-10-10T18:30:47.271Z,11.50
2017-10-10T18:33:13.574Z,11.50
2017-10-10T18:35:39.850Z,11.50
2017-10-10T18:38:06.183Z,11.50
2017-10-10T18:40:32.494Z,11.50
2017-10-10T18:42:58.818Z,11.50
2017-10-10T18:45:25.109Z,11.60
2017-10-10T18:47:51.395Z,11.60
2017-10-10T18:50:17.740Z,11.60
2017-10-10T18:52:44.032Z,11.60
2017-10-10T18:55:10.334Z,11.70
2017-10-10T18:57:36.618Z,11.70
2017-10-10T19:00:02.950Z,11.60
2017-10-10T19:02:30.022Z,11.50
2017-10-10T19:04:57.063Z,11.60
2017-10-10T19:07:24.212Z,11.60
2017-10-10T19:09:51.266Z,11.60
2017-10-10T19:12:18.331Z,11.50
2017-10-10T19:14:44.611Z,11.50
2017-10-10T19:17:10.903Z,11.50
2017-10-10T19:19:37.238Z,11.50
2017-10-10T19:22:03.542Z,11.50
2017-10-10T19:24:29.836Z,11.50
2017-10-10T19:26:58.353Z,11.50
2017-10-10T19:29:24.635Z,11.50
2017-10-10T19:31:50.923Z,11.50
2017-10-10T19:34:17.262Z,11.50
2017-10-10T19:36:43.615Z,11.40
2017-10-10T19:39:09.919Z,11.40
2017-10-10T19:41:36.298Z,11.40
2017-10-10T19:44:02.612Z,11.50
2017-10-10T19:46:29.453Z,11.70
2017-10-10T19:48:55.766Z,11.80
2017-10-10T19:51:22.057Z,11.80
2017-10-10T19:53:50.242Z,11.70
2017-10-10T19:56:16.546Z,11.70
2017-10-10T19:58:43.598Z,11.70
2017-10-10T20:01:10.630Z,11.80
2017-10-10T20:03:36.955Z,11.70
2017-10-10T20:06:03.243Z,11.80
2017-10-10T20:08:29.565Z,11.80
2017-10-10T20:10:55.856Z,11.80
2017-10-10T20:13:22.966Z,11.70
2017-10-10T20:15:49.258Z,11.70
2017-10-10T20:18:15.562Z,11.60
2017-10-10T20:20:42.595Z,11.50
2017-10-10T20:23:08.974Z,11.50
2017-10-10T20:25:35.318Z,11.50
2017-10-10T20:28:01.641Z,11.60
2017-10-10T20:30:27.946Z,11.60
2017-10-10T20:32:54.254Z,11.60
2017-10-10T20:35:20.523Z,11.50
2017-10-10T20:37:46.823Z,11.50
2017-10-10T20:40:14.870Z,11.60
2017-10-10T20:42:41.183Z,11.50
2017-10-10T20:45:07.494Z,11.60
2017-10-10T20:47:33.886Z,11.70
2017-10-10T20:50:00.940Z,11.80
2017-10-10T20:52:27.955Z,11.80
2017-10-10T20:54:54.274Z,11.80
2017-10-10T20:57:20.740Z,12.00
2017-10-10T20:59:47.770Z,12.00
2017-10-10T21:02:15.102Z,12.00
2017-10-10T21:04:41.419Z,12.00
2017-10-10T21:07:08.465Z,12.00
2017-10-10T21:09:34.808Z,12.10
2017-10-10T21:12:01.154Z,12.10
2017-10-10T21:14:27.422Z,12.10
2017-10-10T21:16:54.775Z,12.00
2017-10-10T21:19:21.070Z,12.10
2017-10-10T21:21:47.381Z,12.10
2017-10-10T21:24:13.709Z,12.10
2017-10-10T21:26:40.040Z,12.00
2017-10-10T21:29:06.386Z,12.00
2017-10-10T21:31:32.703Z,11.60
2017-10-10T21:33:59.035Z,11.90
2017-10-10T21:36:25.336Z,11.70
2017-10-10T21:38:52.682Z,11.80
2017-10-10T21:41:18.978Z,11.50
2017-10-10T21:43:45.298Z,11.60
2017-10-10T21:46:11.631Z,11.70
2017-10-10T21:48:37.898Z,11.60
2017-10-10T21:51:04.186Z,11.60
2017-10-10T21:53:30.506Z,11.60
2017-10-10T21:55:56.816Z,11.70
2017-10-10T21:58:23.124Z,11.60
2017-10-10T22:00:49.471Z,11.40
2017-10-10T22:03:15.783Z,11.40
2017-10-10T22:05:42.050Z,11.20
2017-10-10T22:08:08.334Z,11.10
2017-10-10T22:10:34.645Z,11.10
2017-10-10T22:13:01.659Z,10.90
2017-10-10T22:15:27.971Z,10.90
2017-10-10T22:17:54.290Z,10.90
2017-10-10T22:20:20.591Z,10.90
2017-10-10T22:22:46.875Z,10.90
2017-10-10T22:25:13.170Z,10.90
2017-10-10T22:27:39.446Z,10.80
2017-10-10T22:30:07.509Z,10.60
2017-10-10T22:32:33.830Z,10.70
2017-10-10T22:35:00.926Z,10.60
2017-10-10T22:37:27.214Z,10.50
2017-10-10T22:39:53.534Z,10.50
2017-10-10T22:42:19.845Z,10.50
2017-10-10T22:44:46.118Z,10.60
2017-10-10T22:47:13.161Z,10.60
2017-10-10T22:49:40.172Z,10.60
2017-10-10T22:52:06.482Z,10.60
2017-10-10T22:54:32.771Z,10.60
2017-10-10T22:56:59.844Z,10.50
2017-10-10T22:59:26.163Z,10.40
2017-10-10T23:01:53.450Z,10.40
2017-10-10T23:04:19.740Z,10.30
2017-10-10T23:06:46.063Z,10.30
2017-10-10T23:09:13.103Z,10.10
2017-10-10T23:11:40.135Z,10.00
2017-10-10T23:14:06.443Z,10.00
2017-10-10T23:16:32.746Z,10.00
2017-10-10T23:19:00.087Z,10.00
2017-10-10T23:21:26.386Z,10.10
2017-10-10T23:23:52.842Z,10.20
2017-10-10T23:26:21.149Z,10.20
2017-10-10T23:28:47.434Z,10.10
2017-10-10T23:31:14.451Z,10.20
2017-10-10T23:33:41.026Z,10.20
2017-10-10T23:36:08.038Z,10.30
2017-10-10T23:38:34.317Z,10.30
2017-10-10T23:41:01.615Z,10.30
2017-10-10T23:43:27.939Z,10.40
2017-10-10T23:45:54.220Z,10.40
2017-10-10T23:48:20.687Z,10.40
2017-10-10T23:50:48.487Z,10.60
2017-10-10T23:53:15.811Z,10.50
2017-10-10T23:55:42.099Z,10.60
2017-10-10T23:58:09.391Z,10.50
